Blue River, Oregon
Current Conditions -  °F | °C
As of 5:54 PM on Saturday 22 Nov 2014 (Local Time) from KEUG Reporting Station
Broken Clouds Broken Clouds  
Wind Chill: 48°   Ceiling: 6500
Heat Index: 48°   Visibility: 10mi
Dew Point: 42°   Wind: 3mph
Humidity: 80%   Direction: 220°SW
Pressure: 30.19"   Gusts: NA
Location:  44.15°N, 122.34°W
Report Text: KEUG 230154Z 22003KT 10SM FEW049 BKN065 BKN090 09/06 A3019 RMK AO2 SLP222 T00890056
Loading
Personal Weather Stations






























Interactive Weather Map New forecast layout! Learn more

10-Day Weather Forecast

Advertisements
Track Severe Weather on mobile